South Reno (Wolf Run), Nevada Weather observations

Data are for observation ending at time listed.
 Day   Time    Ave.   Ave.  Ave.  Vector   Max.   Stn.    Total    Solar   Ave.  
  of    of     Air    Rel.  Wind   Wind    Wind   Baro.  Precip.   Rad.    Soil  
Year   Day     Temp.  Hum.  Speed  Dir.    Gust   Pres.                    Temp. 
2020   (PST)    F      %     mph   deg.    mph     mb.     in.     W/m2     F   
------------------------------------------------------------------------------
 152   11:10   68.0    30    3.3    63      6.4  99999.0    0.00    1025    62.5
 152   11:20   68.5    28    3.6    52      6.9  99999.0    0.00    1038    62.6
 152   11:30   69.1    27    2.8    59      8.0  99999.0    0.00    1043    62.7
 152   11:40   68.8    27    2.6    82      7.1  99999.0    0.00    1048    62.8
 152   11:50   69.1    27    2.5   338      6.4  99999.0    0.00    1058    62.9
 152   12:00   70.5    24    1.9    49      6.6  99999.0    0.00    1059    63.1
 152   12:10   70.3    25    3.8    85      7.4  99999.0    0.00    1034    63.3
 152   12:20   71.7    24    3.1    54      6.9  99999.0    0.00    1048    63.5
 152   12:30   72.2    23    2.3    13      5.3  99999.0    0.00     993    63.7
 152   12:40   71.9    23    3.5    44      7.7  99999.0    0.00     813    64.0
 152   12:50   71.8    23    3.3    67      6.5  99999.0    0.00     820    64.2
 152   13:00   73.1    23    3.1    57      9.1  99999.0    0.00     914    64.5
 152   13:10   73.3    22    3.7    13      6.4  99999.0    0.00     845    64.8
 152   13:20   72.8    23    2.6    19      5.3  99999.0    0.00     609    65.0
 152   13:30   73.7    22    3.3    58      6.9  99999.0    0.00     866    65.3
 152   13:40   75.3    20    1.9    20      5.2  99999.0    0.00     911    65.6
 152   13:50   74.7    22    1.8    35      6.4  99999.0    0.00     712    65.8
 152   14:00   74.2    21    2.2    37      6.1  99999.0    0.00     736    66.1
 152   14:10   75.1    21    2.3    11      4.7  99999.0    0.00     703    66.3
 152   14:20   75.9    23    1.2     5      6.1  99999.0    0.00     626    66.5
 152   14:30   74.9    21    2.5   210      5.6  99999.0    0.00     685    66.8
 152   14:40   73.4    20    3.9   176      7.7  99999.0    0.00     437    67.0
 152   14:50   72.6    20    4.2   182      7.9  99999.0    0.00     432    67.2
 152   15:00   72.8    21    3.5   208      9.1  99999.0    0.00     500    67.4
 152   15:10   72.7    20    3.4   188      6.9  99999.0    0.00     406    67.6
 152   15:20   72.5    20    2.8   186      5.6  99999.0    0.00     256    67.7
 152   15:30   72.2    21    3.0   164      5.8  99999.0    0.00     196    67.9
 152   15:40   71.8    21    4.0   178      6.9  99999.0    0.00     153    68.0
 152   15:50   71.3    22    3.5   183      6.1  99999.0    0.00     135    68.1
 152   16:00   71.0    22    3.9   188      6.0  99999.0    0.00     127    68.2
 152   16:10   70.9    23    4.4   193      6.1  99999.0    0.00     151    68.3
 152   16:20   71.0    23    2.9   202      5.1  99999.0    0.00     139    68.4
 152   16:30   70.9    25    3.7   194      6.1  99999.0    0.00     141    68.4
 152   16:40   70.8    26    3.2   170      6.0  99999.0    0.00     177    68.5
 152   16:50   71.0    26    3.7   171      7.1  99999.0    0.00     177    68.5
 152   17:00   70.9    28    3.9   176      7.2  99999.0    0.00     169    68.5
 152   17:10   70.3    29    5.2   152      9.9  99999.0    0.00      59    68.5
 152   17:20   69.7    30    4.7   174      8.3  99999.0    0.00      35    68.5
 152   17:30   68.7    33    6.1   190     10.8  99999.0    0.00      62    68.5
 152   17:40   67.2    37    6.1   185     11.2  99999.0    0.00      71    68.5
 152   17:50   67.1    36    6.3   221     11.2  99999.0    0.00      36    68.4
 152   18:00   66.5    36    6.9   217     10.5  99999.0    0.00      16    68.4
 152   18:10   66.1    36    8.4   214     17.5  99999.0    0.00      19    68.4
 152   18:20   62.0    51   10.1   194     18.9  99999.0    0.00      21    68.3
 152   18:30   60.9    52    8.4   183     15.2  99999.0    0.00      14    68.3
 152   18:40   62.4    42    6.0   171     15.9  99999.0    0.00      20    68.2
 152   18:50   62.0    45    5.9   203     10.1  99999.0    0.00      17    68.2
 152   19:00   62.4    44    5.0   217      7.0  99999.0    0.00      16    68.1
 152   19:10   61.5    50    5.0   228      8.4  99999.0    0.00       9    68.1
 152   19:20   61.3    50    5.8   225      8.1  99999.0    0.00       3    68.0
 152   19:30   61.4    49    5.4   229      8.5  99999.0    0.00       1    67.9
 152   19:40   61.4    49    3.2   225      6.2  99999.0    0.00       1    67.9
 152   19:50   61.4    48    3.6   224      6.1  99999.0    0.00       1    67.8
 152   20:00   61.3    48    1.9   212      3.0  99999.0    0.00       0    67.7
 152   20:10   58.7    59    1.9   205      4.7  99999.0    0.00       1    67.6
 152   20:20   57.0    64    0.4   176      5.4  99999.0    0.00       1    67.6
 152   20:30   55.4    72    0.1   172      1.1  99999.0    0.00       1    67.5
 152   20:40   55.8    66    0.7   188      2.3  99999.0    0.00       1    67.4
 152   20:50   55.7    67    1.3   192      2.4  99999.0    0.00       1    67.3
 152   21:00   56.8    59    1.3   202      2.4  99999.0    0.00       0    67.2
 152   21:10   57.4    56    1.4   224      2.5  99999.0    0.00       0    67.1
 152   21:20   56.0    63    0.0   241      1.4  99999.0    0.00       0    67.0
 152   21:30   55.5    65    0.5   320      3.9  99999.0    0.00       0    66.9
 152   21:40   56.9    62    1.4   324      3.9  99999.0    0.00       0    66.8
 152   21:50   56.8    65    0.8   314      4.1  99999.0    0.00       0    66.7
 152   22:00   56.6    66    0.3   304      4.2  99999.0    0.00       0    66.6
 152   22:10   56.3    68    0.0   319      0.9  99999.0    0.00       0    66.5
 152   22:20   55.9    69    0.0   317      1.5  99999.0    0.00       0    66.4
 152   22:30   56.2    66    1.0   317      3.4  99999.0    0.00       0    66.3
 152   22:40   56.8    66    0.5   312      2.5  99999.0    0.00       0    66.3
 152   22:50   57.0    63    1.5   325      3.4  99999.0    0.00       0    66.2
 152   23:00   57.2    62    0.6   355      1.6  99999.0    0.00       0    66.1
 152   23:10   56.9    65    0.1    83      1.1  99999.0    0.00       1    66.0
 152   23:20   55.9    69    1.6   154      3.6  99999.0    0.00       2    66.0
 152   23:30   55.0    70    1.3   110      3.0  99999.0    0.01       3    65.9
 152   23:40   54.7    71    1.7   203      2.9  99999.0    0.00       2    65.9
 152   23:50   54.1    74    2.3   147      4.0  99999.0    0.00       2    65.8
 153    0:00   54.2    73    2.1   137      4.3  99999.0    0.00       2    65.7
 153    0:10   54.8    69    1.1   174      4.2  99999.0    0.00       0    65.7
 153    0:20   55.1    68    1.1    69      4.1  99999.0    0.00       0    65.6
 153    0:30   55.6    68    0.4    81      3.1  99999.0    0.00       0    65.6
 153    0:40   55.6    66    0.5   126      2.6  99999.0    0.00       0    65.5
 153    0:50   56.0    66    0.8   117      3.0  99999.0    0.00       0    65.5
 153    1:00   55.3    70    0.4   319      1.9  99999.0    0.00       0    65.4
 153    1:10   55.0    71    0.9   323      2.3  99999.0    0.00       0    65.4
 153    1:20   55.3    69    0.3   343      1.5  99999.0    0.00       0    65.3
 153    1:30   55.1    71    0.8   313      2.7  99999.0    0.00       0    65.3
 153    1:40   55.0    72    0.3   314      2.3  99999.0    0.00       0    65.2
 153    1:50   55.3    69    0.6   228      2.0  99999.0    0.00       0    65.2
 153    2:00   55.8    65    0.1   166      1.2  99999.0    0.00       0    65.1
 153    2:10   56.2    64    1.3   186      2.1  99999.0    0.00       0    65.1
 153    2:20   56.5    61    2.2   133      4.0  99999.0    0.00       0    65.0
 153    2:30   56.9    58    0.9   141      2.1  99999.0    0.00       0    65.0
 153    2:40   56.4    60    0.0     0      0.0  99999.0    0.00       0    64.9
 153    2:50   56.0    60    0.7    98      3.4  99999.0    0.00       0    64.9
 153    3:00   55.9    60    0.6    99      2.6  99999.0    0.00       0    64.9
 153    3:10   55.5    60    0.0    16      0.8  99999.0    0.00       0    64.8
 153    3:20   55.4    59    0.0    23      1.4  99999.0    0.00       0    64.8
 153    3:30   55.3    58    0.0     0      0.0  99999.0    0.00       0    64.7
 153    3:40   55.2    58    0.1   223      1.3  99999.0    0.00       0    64.7
 153    3:50   53.8    62    0.5   223      1.5  99999.0    0.00       0    64.7
 153    4:00   54.2    60    0.2   224      1.5  99999.0    0.00       0    64.6
 153    4:10   54.8    58    0.1    97      1.3  99999.0    0.00       0    64.6
 153    4:20   54.3    60    0.0     0      0.0  99999.0    0.00       0    64.5
 153    4:30   54.3    59    0.3   357      1.7  99999.0    0.00       1    64.5
 153    4:40   53.9    60    0.6   229      2.2  99999.0    0.00       4    64.4
 153    4:50   53.1    62    0.0   228      0.1  99999.0    0.00      11    64.4
 153    5:00   52.8    63    0.2   225      1.5  99999.0    0.00      16    64.4
 153    5:10   52.3    66    0.4   232      1.8  99999.0    0.00      28    64.3
 153    5:20   52.6    66    0.5   227      2.1  99999.0    0.00      40    64.3
 153    5:30   53.4    63    0.1   212      1.0  99999.0    0.00      61    64.2
 153    5:40   54.6    61    0.1   218      1.1  99999.0    0.00      63    64.2
 153    5:50   55.1    60    0.0     0      0.0  99999.0    0.00      61    64.1
 153    6:00   56.0    59    0.0     5      1.2  99999.0    0.00      75    64.1
 153    6:10   56.6    57    0.0     0      0.0  99999.0    0.00      59    64.1
 153    6:20   56.6    57    0.3    76      1.5  99999.0    0.00      62    64.0
 153    6:30   56.8    56    0.2    80      1.2  99999.0    0.00      80    64.0
 153    6:40   57.0    56    0.1    65      1.2  99999.0    0.00      81    64.0
 153    6:50   57.4    57    0.0     0      0.0  99999.0    0.00     104    63.9
 153    7:00   57.9    56    0.0   347      1.1  99999.0    0.00     142    63.9
 153    7:10   58.6    54    0.3   360      2.6  99999.0    0.00     175    63.9
 153    7:20   59.0    52    0.6   333      2.2  99999.0    0.00     178    63.8
 153    7:30   59.5    51    0.7   344      2.6  99999.0    0.00     194    63.8
 153    7:40   59.7    49    1.0   347      2.9  99999.0    0.00     195    63.8
 153    7:50   59.9    49    0.9   348      2.3  99999.0    0.00     189    63.8
 153    8:00   60.3    47    0.9   344      3.5  99999.0    0.00     206    63.8
 153    8:10   60.2    46    1.6   354      3.9  99999.0    0.00     259    63.8
 153    8:20   61.0    43    1.7   359      4.2  99999.0    0.00     294    63.8
 153    8:30   61.6    42    1.8   344      4.4  99999.0    0.00     405    63.8
 153    8:40   64.0    41    1.4   355      4.2  99999.0    0.00     716    63.8
 153    8:50   65.9    39    1.8   345      8.5  99999.0    0.00     922    63.8
 153    9:00   65.0    38    2.6    25      6.1  99999.0    0.00     488    63.8
 153    9:10   64.4    38    2.4   346      5.8  99999.0    0.00     728    63.9
 153    9:20   66.9    36    2.8   341      6.1  99999.0    0.00     952    63.9
 153    9:30   67.0    35    3.3   353      6.7  99999.0    0.00     843    63.9
 153    9:40   65.8    35    2.8   352      5.8  99999.0    0.00     685    64.0
 153    9:50   65.8    36    2.2   331      4.8  99999.0    0.00     447    64.0
 153   10:00   65.4    36    2.1   343      5.3  99999.0    0.00     456    64.1
 153   10:10   65.8    34    2.7   358      4.7  99999.0    0.00     472    64.1
 153   10:20   65.6    34    2.2   345      5.0  99999.0    0.00     418    64.2
 153   10:30   66.2    34    2.2   352      4.2  99999.0    0.00     477    64.3
 153   10:40   67.4    32    1.6   329      4.8  99999.0    0.00     539    64.3
 153   10:50   67.9    32    1.9   360      4.3  99999.0    0.00     507    64.4
 153   11:00   68.2    32    1.8   340      4.6  99999.0    0.00     614    64.5

Return to South Reno, Nevada graphs page.


Western Regional Climate Center,wrcc@dri.edu